Diamond Orchid — 9VNH4 — position and weather

sailwx.info

Track history (hours):
 
Tides and Currents Weather Stations Pressure Air Temp Water Temp Dewpoint Dewpoint Depression Visibility Wind Speed Wind Dir Waves Ship Positions

Diamond Orchid

Last reported at 2016-Jul-30 07:26 UTC. Time now 2016-Jul-30 09:19 UTC.
Position N 01°12' E 103°37'.

Length 144 m; draft 8.5 m.

Type: Tanker. MMSI: 565789000.

Date/timePositionNaut miles runAvg speedWind from/ knotsBaromVisibWave heightAir tempDewpointWater temp
2016-Jul-30 07:26N 01°12' E 103°37'6 7.0
2016-Jul-30 06:31N 01°17' E 103°41'1 0.0
2016-Jul-28 18:15N 01°18' E 103°41'1 1.1
2016-Jul-28 17:33N 01°18' E 103°42'1 0.0
2016-Jul-27 10:32N 01°17' E 103°42'3 2.5
2016-Jul-27 09:28N 01°16' E 103°39'4 0.4
2016-Jul-26 23:16N 01°15' E 103°43'2 2.4
2016-Jul-26 22:32N 01°14' E 103°42'3 2.5
2016-Jul-26 21:25N 01°14' E 103°39'0 0.0
2016-Jul-26 19:07N 01°14' E 103°39'0 0.0
2016-Jul-26 18:31N 01°14' E 103°39'0 0.0
2016-Jul-26 17:25N 01°14' E 103°39'0 0.1
2016-Jul-26 16:19N 01°14' E 103°39'0 0.1
2016-Jul-26 14:33N 01°14' E 103°40'2 0.1
2016-Jul-25 22:31N 01°13' E 103°41'2 0.6
2016-Jul-25 18:27N 01°13' E 103°39'3 3.5
2016-Jul-25 17:33N 01°11' E 103°41'4 4.3
2016-Jul-25 16:32N 01°09' E 103°45'9 9.1
2016-Jul-25 15:34N 01°13' E 103°53'1312.2
2016-Jul-25 14:31N 01°16' E 104°05'  
Track history (hours):
 
Tides and Currents Weather Stations Pressure Air Temp Water Temp Dewpoint Dewpoint Depression Visibility Wind Speed Wind Dir Waves Ship Positions

Diamond Orchid

Last reported at 2016-Jul-30 07:26 UTC. Time now 2016-Jul-30 09:19 UTC.
Position N 01°12' E 103°37'.

Length 144 m; draft 8.5 m.

Type: Tanker. MMSI: 565789000.

Date/timePositionNaut miles runAvg speedWind from/ knotsBaromVisibWave heightAir tempDewpointWater temp
2016-Jul-30 07:26N 01°12' E 103°37'6 7.0
2016-Jul-30 06:31N 01°17' E 103°41'1 0.0
2016-Jul-28 18:15N 01°18' E 103°41'1 1.1
2016-Jul-28 17:33N 01°18' E 103°42'1 0.0
2016-Jul-27 10:32N 01°17' E 103°42'3 2.5
2016-Jul-27 09:28N 01°16' E 103°39'4 0.4
2016-Jul-26 23:16N 01°15' E 103°43'2 2.4
2016-Jul-26 22:32N 01°14' E 103°42'3 2.5
2016-Jul-26 21:25N 01°14' E 103°39'0 0.0
2016-Jul-26 19:07N 01°14' E 103°39'0 0.0
2016-Jul-26 18:31N 01°14' E 103°39'0 0.0
2016-Jul-26 17:25N 01°14' E 103°39'0 0.1
2016-Jul-26 16:19N 01°14' E 103°39'0 0.1
2016-Jul-26 14:33N 01°14' E 103°40'2 0.1
2016-Jul-25 22:31N 01°13' E 103°41'2 0.6
2016-Jul-25 18:27N 01°13' E 103°39'3 3.5
2016-Jul-25 17:33N 01°11' E 103°41'4 4.3
2016-Jul-25 16:32N 01°09' E 103°45'9 9.1
2016-Jul-25 15:34N 01°13' E 103°53'1312.2
2016-Jul-25 14:31N 01°16' E 104°05'  

Dump ship's entire track history